Time;durP1;ratioP1;P1;durP2;ratioP2;P2;SDS_P1;SDS_P2;PMS_P1;PMS_P2;Temp;Humidity;BMP_temperature;BMP_pressure;BME280_temperature;BME280_humidity;BME280_pressure;Samples;Min_cycle;Max_cycle;Signal;HPM_P1;HPM_P2
2023/10/14 00:02:23;;;;;;;23.85;13.75;;;;;;;;;;5176786;27;20071;-73
2023/10/14 00:05:09;;;;;;;27.35;14.35;;;;;;;;;;5177234;27;20082;-73
2023/10/14 00:07:54;;;;;;;31.48;15.20;;;;;;;;;;5163152;27;20454;-72
2023/10/14 00:10:40;;;;;;;28.55;13.23;;;;;;;;;;5177913;27;20022;-73
2023/10/14 00:13:30;;;;;;;21.23;11.55;;;;;;;;;;5177040;27;20029;-72
2023/10/14 00:19:14;;;;;;;20.33;11.65;;;;;;;;;;5178141;27;20028;-73
2023/10/14 00:22:00;;;;;;;22.75;11.20;;;;;;;;;;5177370;27;20139;-73
2023/10/14 00:24:48;;;;;;;19.45;11.70;;;;;;;;;;5178065;27;20018;-73
2023/10/14 00:27:34;;;;;;;27.08;12.60;;;;;;;;;;5178326;27;20034;-75
2023/10/14 00:30:20;;;;;;;26.75;13.48;;;;;;;;;;5162517;27;20018;-75
2023/10/14 00:33:06;;;;;;;24.05;13.15;;;;;;;;;;5162784;27;20022;-75
2023/10/14 00:35:56;;;;;;;27.42;13.30;;;;;;;;;;5177695;27;20032;-73
2023/10/14 00:38:44;;;;;;;24.30;12.88;;;;;;;;;;5176541;27;20026;-74
2023/10/14 00:41:30;;;;;;;24.52;14.32;;;;;;;;;;5176094;27;20023;-73
2023/10/14 00:44:16;;;;;;;32.40;14.93;;;;;;;;;;5177060;27;20026;-75
2023/10/14 00:47:06;;;;;;;29.23;15.32;;;;;;;;;;5177087;27;20022;-74
2023/10/14 00:49:55;;;;;;;29.08;15.63;;;;;;;;;;5161469;27;20042;-73
2023/10/14 00:52:41;;;;;;;22.15;14.30;;;;;;;;;;5162501;27;20025;-74
2023/10/14 00:55:35;;;;;;;28.13;15.07;;;;;;;;;;5162047;27;20026;-74
2023/10/14 00:58:23;;;;;;;26.55;14.05;;;;;;;;;;5176816;27;20021;-74
2023/10/14 01:01:08;;;;;;;32.30;14.50;;;;;;;;;;5176502;27;20098;-72
2023/10/14 01:03:58;;;;;;;24.73;14.80;;;;;;;;;;5161972;27;20019;-72
2023/10/14 01:12:39;;;;;;;28.83;15.43;;;;;;;;;;5155422;27;20080;-73
2023/10/14 01:15:30;;;;;;;27.77;14.95;;;;;;;;;;5154810;27;20023;-73
2023/10/14 01:18:15;;;;;;;26.60;15.85;;;;;;;;;;5154833;27;20432;-73
2023/10/14 01:21:02;;;;;;;30.15;14.95;;;;;;;;;;5153990;27;20397;-72
2023/10/14 01:23:50;;;;;;;32.10;15.52;;;;;;;;;;5154828;27;20022;-74
2023/10/14 01:26:36;;;;;;;28.48;16.08;;;;;;;;;;5154710;27;20015;-73
2023/10/14 01:29:25;;;;;;;25.63;15.52;;;;;;;;;;5158128;27;20011;-73
2023/10/14 01:32:30;;;;;;;25.27;14.98;;;;;;;;;;5158121;27;20088;-74
2023/10/14 01:38:11;;;;;;;25.17;14.43;;;;;;;;;;5167560;27;20050;-73
2023/10/14 01:40:57;;;;;;;30.60;15.30;;;;;;;;;;5171732;27;20055;-72
2023/10/14 01:43:43;;;;;;;26.98;15.20;;;;;;;;;;5173348;27;20019;-73
2023/10/14 01:46:30;;;;;;;31.42;15.00;;;;;;;;;;5171685;27;20010;-72
2023/10/14 01:49:19;;;;;;;32.05;16.20;;;;;;;;;;5171781;27;20050;-73
2023/10/14 01:52:07;;;;;;;28.55;15.30;;;;;;;;;;5170524;27;20022;-73
2023/10/14 01:54:55;;;;;;;31.20;16.00;;;;;;;;;;5155717;27;20027;-75
2023/10/14 01:57:42;;;;;;;27.63;15.43;;;;;;;;;;5155271;27;20117;-73
2023/10/14 02:00:35;;;;;;;23.13;14.20;;;;;;;;;;5155551;27;20031;-74
2023/10/14 02:03:21;;;;;;;22.98;14.32;;;;;;;;;;5154285;27;20540;-73
2023/10/14 02:06:10;;;;;;;28.60;14.07;;;;;;;;;;5176404;27;20071;-73
2023/10/14 02:09:00;;;;;;;30.70;14.95;;;;;;;;;;5194044;27;20024;-72
2023/10/14 02:11:47;;;;;;;21.90;13.45;;;;;;;;;;5186485;27;20014;-72
2023/10/14 02:14:32;;;;;;;21.35;13.00;;;;;;;;;;5197785;27;20045;-73
2023/10/14 02:17:18;;;;;;;19.13;11.32;;;;;;;;;;5186325;27;20504;-73
2023/10/14 02:20:20;;;;;;;16.33;9.35;;;;;;;;;;5168074;27;20079;-73
2023/10/14 02:23:05;;;;;;;16.13;9.90;;;;;;;;;;5196107;27;20029;-73
2023/10/14 02:25:56;;;;;;;19.85;10.02;;;;;;;;;;5181184;27;20018;-76
2023/10/14 02:28:47;;;;;;;23.00;10.02;;;;;;;;;;5183124;27;20281;-74
2023/10/14 02:31:35;;;;;;;15.05;9.00;;;;;;;;;;5182199;27;20432;-73
2023/10/14 02:34:21;;;;;;;13.15;9.35;;;;;;;;;;5173620;27;20030;-74
2023/10/14 02:37:07;;;;;;;15.05;10.13;;;;;;;;;;5191104;27;20050;-73
2023/10/14 02:39:53;;;;;;;15.43;9.50;;;;;;;;;;5167224;27;20022;-73
2023/10/14 02:42:41;;;;;;;18.90;10.05;;;;;;;;;;5166667;27;20021;-73
2023/10/14 02:45:27;;;;;;;15.30;10.02;;;;;;;;;;5182840;27;20029;-73
2023/10/14 02:48:18;;;;;;;18.95;9.65;;;;;;;;;;5181535;27;20039;-73
2023/10/14 02:51:06;;;;;;;21.50;11.05;;;;;;;;;;5170345;27;20038;-73
2023/10/14 02:53:51;;;;;;;20.35;10.38;;;;;;;;;;5186725;27;20125;-74
2023/10/14 03:05:10;;;;;;;23.10;10.65;;;;;;;;;;5176710;27;20474;-72
2023/10/14 03:07:55;;;;;;;16.65;10.55;;;;;;;;;;5160181;27;20019;-73
2023/10/14 03:10:45;;;;;;;19.90;12.13;;;;;;;;;;5159509;27;20353;-72
2023/10/14 03:13:30;;;;;;;22.33;12.45;;;;;;;;;;5159944;27;20432;-73
2023/10/14 03:16:17;;;;;;;19.48;12.20;;;;;;;;;;5160484;27;20026;-73
2023/10/14 03:19:02;;;;;;;20.27;13.00;;;;;;;;;;5159199;27;20027;-73
2023/10/14 03:22:09;;;;;;;19.90;12.52;;;;;;;;;;5158322;27;20025;-74
2023/10/14 03:25:04;;;;;;;24.60;13.25;;;;;;;;;;5156529;27;20431;-74
2023/10/14 03:27:50;;;;;;;25.10;13.57;;;;;;;;;;5156768;27;20098;-75
2023/10/14 03:30:37;;;;;;;25.63;13.43;;;;;;;;;;5156184;27;20030;-74
2023/10/14 03:33:23;;;;;;;22.10;13.38;;;;;;;;;;5155906;27;20424;-74
2023/10/14 03:36:15;;;;;;;28.50;13.82;;;;;;;;;;5155690;27;20018;-73
2023/10/14 03:39:17;;;;;;;23.42;13.93;;;;;;;;;;5157145;27;20060;-73
2023/10/14 03:42:10;;;;;;;26.00;14.63;;;;;;;;;;5156524;27;20023;-72
2023/10/14 03:44:58;;;;;;;27.02;14.48;;;;;;;;;;5157206;27;20448;-73
2023/10/14 03:47:45;;;;;;;32.75;14.77;;;;;;;;;;5156848;27;20022;-74
2023/10/14 03:50:31;;;;;;;26.38;15.40;;;;;;;;;;5156803;27;20486;-73
2023/10/14 03:53:17;;;;;;;43.65;16.80;;;;;;;;;;5155733;27;20042;-72
2023/10/14 03:56:03;;;;;;;36.78;17.33;;;;;;;;;;5156586;27;20036;-73
2023/10/14 03:58:49;;;;;;;35.47;16.35;;;;;;;;;;5157023;27;20082;-74
2023/10/14 04:04:27;;;;;;;41.53;18.40;;;;;;;;;;5157205;27;20033;-73
2023/10/14 04:07:13;;;;;;;27.02;16.30;;;;;;;;;;5157178;27;20461;-74
2023/10/14 04:10:04;;;;;;;31.15;14.90;;;;;;;;;;5157969;27;20034;-74
2023/10/14 04:13:04;;;;;;;24.85;16.10;;;;;;;;;;5175054;27;20109;-74
2023/10/14 04:15:52;;;;;;;25.52;15.50;;;;;;;;;;5176165;27;20128;-72
2023/10/14 04:18:40;;;;;;;23.05;13.60;;;;;;;;;;5177301;27;20444;-74
2023/10/14 04:21:35;;;;;;;25.88;14.77;;;;;;;;;;5175941;27;20022;-72
2023/10/14 04:27:32;;;;;;;28.38;16.55;;;;;;;;;;5177006;27;20373;-73
2023/10/14 04:30:24;;;;;;;32.40;16.65;;;;;;;;;;5176125;27;20097;-73
2023/10/14 04:39:05;;;;;;;31.35;16.35;;;;;;;;;;5176732;27;20029;-73
2023/10/14 04:41:58;;;;;;;34.03;16.70;;;;;;;;;;5175678;27;20036;-74
2023/10/14 04:44:45;;;;;;;32.78;16.98;;;;;;;;;;5175291;27;20026;-72
2023/10/14 04:47:36;;;;;;;35.45;16.70;;;;;;;;;;5175856;27;20018;-73
2023/10/14 04:50:23;;;;;;;35.28;17.90;;;;;;;;;;5175002;27;20060;-72
2023/10/14 04:53:13;;;;;;;33.17;17.58;;;;;;;;;;5174893;27;20036;-73
2023/10/14 04:56:04;;;;;;;27.83;18.33;;;;;;;;;;5175496;27;20022;-74
2023/10/14 04:58:52;;;;;;;36.08;18.52;;;;;;;;;;5175914;27;20021;-74
2023/10/14 05:01:42;;;;;;;36.38;17.70;;;;;;;;;;5176197;27;20139;-73
2023/10/14 05:04:30;;;;;;;29.17;15.68;;;;;;;;;;5175065;27;20091;-73
2023/10/14 05:07:17;;;;;;;32.88;15.75;;;;;;;;;;5155132;27;20106;-74
2023/10/14 05:10:10;;;;;;;21.52;14.30;;;;;;;;;;5154826;27;20025;-74
2023/10/14 05:12:55;;;;;;;28.88;14.30;;;;;;;;;;5154996;27;20018;-72
2023/10/14 05:15:45;;;;;;;16.23;11.20;;;;;;;;;;5154725;27;20401;-73
2023/10/14 05:18:35;;;;;;;22.42;12.32;;;;;;;;;;5155331;27;20464;-74
2023/10/14 05:21:35;;;;;;;23.60;12.20;;;;;;;;;;5154180;27;20035;-73
2023/10/14 05:24:23;;;;;;;21.50;12.40;;;;;;;;;;5139694;27;20033;-72
2023/10/14 05:27:09;;;;;;;24.45;13.82;;;;;;;;;;5154572;27;20039;-73
2023/10/14 05:29:54;;;;;;;24.98;14.40;;;;;;;;;;5154411;27;20048;-73
2023/10/14 05:32:43;;;;;;;25.52;13.65;;;;;;;;;;5154256;27;20139;-72
2023/10/14 05:35:31;;;;;;;27.52;13.98;;;;;;;;;;5154938;27;20023;-73
2023/10/14 05:38:17;;;;;;;35.35;15.38;;;;;;;;;;5139889;27;20034;-74
2023/10/14 05:41:09;;;;;;;28.25;13.88;;;;;;;;;;5138979;27;20428;-73
2023/10/14 05:43:55;;;;;;;21.30;13.63;;;;;;;;;;5153417;27;20019;-72
2023/10/14 05:46:44;;;;;;;20.45;11.90;;;;;;;;;;5153960;27;20033;-72
2023/10/14 05:49:29;;;;;;;23.88;12.75;;;;;;;;;;5153553;27;20047;-72
2023/10/14 05:52:15;;;;;;;21.42;12.50;;;;;;;;;;5139136;27;20591;-73
2023/10/14 05:55:03;;;;;;;24.38;14.68;;;;;;;;;;5153405;27;20031;-72
2023/10/14 05:57:50;;;;;;;25.35;14.68;;;;;;;;;;5154285;27;20397;-74
2023/10/14 06:00:38;;;;;;;20.65;13.23;;;;;;;;;;5154155;27;20018;-73
2023/10/14 06:03:24;;;;;;;22.35;12.00;;;;;;;;;;5154108;27;20030;-73
2023/10/14 06:06:10;;;;;;;23.65;11.93;;;;;;;;;;5138980;27;20015;-73
2023/10/14 06:08:55;;;;;;;22.02;11.88;;;;;;;;;;5139263;27;20309;-74
2023/10/14 06:11:41;;;;;;;21.40;12.38;;;;;;;;;;5138762;27;20120;-74
2023/10/14 06:14:26;;;;;;;24.17;12.13;;;;;;;;;;5139049;27;20094;-72
2023/10/14 06:17:13;;;;;;;26.90;12.65;;;;;;;;;;5153391;27;20022;-73
2023/10/14 06:19:59;;;;;;;21.77;12.43;;;;;;;;;;5153799;27;20023;-74
2023/10/14 06:22:45;;;;;;;28.48;15.98;;;;;;;;;;5153259;27;20414;-75
2023/10/14 06:25:30;;;;;;;27.27;16.15;;;;;;;;;;5153533;27;20033;-74
2023/10/14 06:28:16;;;;;;;24.20;15.13;;;;;;;;;;5153202;27;20448;-73
2023/10/14 06:31:04;;;;;;;28.13;14.65;;;;;;;;;;5154063;27;20462;-74
2023/10/14 06:33:49;;;;;;;24.27;13.27;;;;;;;;;;5153260;27;20131;-73
2023/10/14 06:36:35;;;;;;;22.55;13.55;;;;;;;;;;5153961;27;20015;-74
2023/10/14 06:39:27;;;;;;;30.70;12.98;;;;;;;;;;5152874;27;20019;-73
2023/10/14 06:42:17;;;;;;;26.92;13.07;;;;;;;;;;5153919;27;20055;-73
2023/10/14 06:45:05;;;;;;;28.35;11.77;;;;;;;;;;5153481;27;20023;-74
2023/10/14 06:47:51;;;;;;;25.58;12.10;;;;;;;;;;5153574;27;20019;-74
2023/10/14 06:50:44;;;;;;;25.17;12.90;;;;;;;;;;5152932;27;20057;-72
2023/10/14 06:53:30;;;;;;;19.77;10.80;;;;;;;;;;5154417;27;20076;-74
2023/10/14 06:56:15;;;;;;;20.90;10.35;;;;;;;;;;5141012;27;20160;-74
2023/10/14 06:59:01;;;;;;;26.17;12.52;;;;;;;;;;5159113;27;20022;-73
2023/10/14 07:01:47;;;;;;;21.23;11.73;;;;;;;;;;5144125;27;20125;-73
2023/10/14 07:04:37;;;;;;;20.92;11.30;;;;;;;;;;5162354;27;20026;-73
2023/10/14 07:07:23;;;;;;;23.27;11.48;;;;;;;;;;5160467;27;20021;-73
2023/10/14 07:10:09;;;;;;;17.13;10.25;;;;;;;;;;5157174;27;20413;-72
2023/10/14 07:12:57;;;;;;;21.20;10.90;;;;;;;;;;5156653;27;20038;-72
2023/10/14 07:15:44;;;;;;;22.23;11.00;;;;;;;;;;5157614;27;20101;-73
2023/10/14 07:18:29;;;;;;;22.50;12.07;;;;;;;;;;5156728;27;20065;-72
2023/10/14 07:21:15;;;;;;;30.77;13.63;;;;;;;;;;5158060;27;20022;-72
2023/10/14 07:24:05;;;;;;;35.65;14.73;;;;;;;;;;5157230;27;20061;-72
2023/10/14 07:26:51;;;;;;;34.08;15.15;;;;;;;;;;5157001;27;20022;-72
2023/10/14 07:29:39;;;;;;;30.77;16.02;;;;;;;;;;5156593;27;20071;-72
2023/10/14 07:32:30;;;;;;;38.78;19.13;;;;;;;;;;5156704;27;20080;-71
2023/10/14 07:35:17;;;;;;;31.33;18.63;;;;;;;;;;5156999;27;20114;-70
2023/10/14 07:38:03;;;;;;;28.50;17.75;;;;;;;;;;5156439;27;20439;-73
2023/10/14 07:40:49;;;;;;;33.88;16.75;;;;;;;;;;5140886;27;20018;-72
2023/10/14 07:43:36;;;;;;;27.40;15.82;;;;;;;;;;5141335;27;20037;-72
2023/10/14 07:46:22;;;;;;;32.65;15.60;;;;;;;;;;5156992;27;20401;-71
2023/10/14 07:49:08;;;;;;;29.77;15.85;;;;;;;;;;5156337;27;20053;-71
2023/10/14 07:51:56;;;;;;;23.30;15.43;;;;;;;;;;5157456;27;20025;-71
2023/10/14 07:54:42;;;;;;;30.48;16.85;;;;;;;;;;5141525;27;20095;-71
2023/10/14 07:57:28;;;;;;;30.27;15.40;;;;;;;;;;5155875;27;20053;-71
2023/10/14 08:00:14;;;;;;;35.60;16.98;;;;;;;;;;5140885;27;20025;-70
2023/10/14 08:03:06;;;;;;;27.88;16.27;;;;;;;;;;5155571;27;20026;-71
2023/10/14 08:05:53;;;;;;;27.38;14.77;;;;;;;;;;5166805;27;20018;-72
2023/10/14 08:08:50;;;;;;;24.60;14.52;;;;;;;;;;5175013;27;20472;-72
2023/10/14 08:11:37;;;;;;;30.23;15.68;;;;;;;;;;5177554;27;20030;-71
2023/10/14 08:14:23;;;;;;;30.70;16.23;;;;;;;;;;5161813;27;20026;-71
2023/10/14 08:17:11;;;;;;;26.00;15.55;;;;;;;;;;5175495;27;20101;-71
2023/10/14 08:19:57;;;;;;;29.08;14.00;;;;;;;;;;5176888;27;20041;-72
2023/10/14 08:22:46;;;;;;;26.48;13.43;;;;;;;;;;5175872;27;20029;-72
2023/10/14 08:25:34;;;;;;;24.60;13.43;;;;;;;;;;5176801;27;20029;-72
2023/10/14 08:28:28;;;;;;;23.42;13.90;;;;;;;;;;5176018;27;20104;-71
2023/10/14 08:31:16;;;;;;;22.95;12.77;;;;;;;;;;5176867;27;20022;-71
2023/10/14 08:34:01;;;;;;;32.67;14.23;;;;;;;;;;5176106;27;20060;-71
2023/10/14 08:36:47;;;;;;;25.83;13.57;;;;;;;;;;5176555;27;20030;-71
2023/10/14 08:39:33;;;;;;;27.35;13.73;;;;;;;;;;5162078;27;20367;-71
2023/10/14 08:42:19;;;;;;;33.30;14.75;;;;;;;;;;5176016;27;20316;-73
2023/10/14 08:45:10;;;;;;;26.92;14.25;;;;;;;;;;5176938;27;20006;-73
2023/10/14 08:47:58;;;;;;;27.90;13.65;;;;;;;;;;5175201;27;20018;-73
2023/10/14 08:50:45;;;;;;;31.42;13.43;;;;;;;;;;5175953;27;20046;-72
2023/10/14 08:53:38;;;;;;;26.15;13.05;;;;;;;;;;5160994;27;20408;-72
2023/10/14 08:56:24;;;;;;;26.90;13.18;;;;;;;;;;5175477;27;20030;-73
2023/10/14 08:59:12;;;;;;;27.23;12.57;;;;;;;;;;5161147;27;20448;-73
2023/10/14 09:01:58;;;;;;;21.52;11.05;;;;;;;;;;5176030;27;20038;-73
2023/10/14 09:04:45;;;;;;;20.50;11.45;;;;;;;;;;5175263;27;20102;-73
2023/10/14 09:07:32;;;;;;;25.73;12.02;;;;;;;;;;5175245;27;20029;-72
2023/10/14 09:10:19;;;;;;;25.52;12.32;;;;;;;;;;5175703;27;20022;-72
2023/10/14 09:13:09;;;;;;;21.38;12.13;;;;;;;;;;5176139;27;20037;-72
2023/10/14 09:15:57;;;;;;;24.40;12.55;;;;;;;;;;5176454;27;20505;-72
2023/10/14 09:18:56;;;;;;;22.52;12.35;;;;;;;;;;5176429;27;20022;-72
2023/10/14 09:21:43;;;;;;;25.52;12.23;;;;;;;;;;5176045;27;20447;-72
2023/10/14 09:24:31;;;;;;;21.73;12.48;;;;;;;;;;5175735;27;20028;-73
2023/10/14 09:27:20;;;;;;;28.95;11.90;;;;;;;;;;5175717;27;20098;-72
2023/10/14 09:30:09;;;;;;;22.65;11.25;;;;;;;;;;5176393;27;20114;-73
2023/10/14 09:32:54;;;;;;;23.55;11.00;;;;;;;;;;5159124;27;20091;-73
2023/10/14 09:35:41;;;;;;;21.08;9.50;;;;;;;;;;5175793;27;20064;-73
2023/10/14 09:38:27;;;;;;;22.27;9.52;;;;;;;;;;5175879;27;20019;-73
2023/10/14 09:41:14;;;;;;;24.38;9.45;;;;;;;;;;5174177;27;20483;-73
2023/10/14 09:43:59;;;;;;;19.92;8.57;;;;;;;;;;5175490;27;20026;-72
2023/10/14 09:46:46;;;;;;;22.77;8.27;;;;;;;;;;5176529;27;20022;-73
2023/10/14 09:49:35;;;;;;;20.50;7.63;;;;;;;;;;5174337;27;20054;-73
2023/10/14 09:52:21;;;;;;;15.43;7.32;;;;;;;;;;5173705;27;20114;-72
2023/10/14 09:55:13;;;;;;;19.55;6.68;;;;;;;;;;5174807;27;20033;-72
2023/10/14 09:58:00;;;;;;;13.27;6.45;;;;;;;;;;5174928;27;20425;-72
2023/10/14 10:00:49;;;;;;;14.43;6.65;;;;;;;;;;5174869;27;20101;-72
2023/10/14 10:03:44;;;;;;;13.65;5.82;;;;;;;;;;5174963;27;20451;-72
2023/10/14 10:06:47;;;;;;;13.45;5.85;;;;;;;;;;5174889;27;20400;-72
2023/10/14 10:09:49;;;;;;;14.15;5.47;;;;;;;;;;5175388;27;20408;-72
2023/10/14 10:12:35;;;;;;;9.88;3.70;;;;;;;;;;5174853;27;20087;-72
2023/10/14 10:15:21;;;;;;;11.50;4.00;;;;;;;;;;5174414;27;20014;-72
2023/10/14 10:18:12;;;;;;;14.52;5.22;;;;;;;;;;5160182;27;20092;-71
2023/10/14 10:20:58;;;;;;;17.77;5.30;;;;;;;;;;5174387;27;20045;-73
2023/10/14 10:23:43;;;;;;;11.30;5.28;;;;;;;;;;5174060;27;20023;-75
2023/10/14 10:26:49;;;;;;;11.80;4.40;;;;;;;;;;5174024;27;20014;-72
2023/10/14 10:29:50;;;;;;;10.63;5.30;;;;;;;;;;5173494;27;20109;-72
2023/10/14 10:32:38;;;;;;;12.27;5.25;;;;;;;;;;5178160;27;20022;-70
2023/10/14 10:35:24;;;;;;;10.85;4.90;;;;;;;;;;5178710;27;20033;-69
2023/10/14 10:38:10;;;;;;;8.57;4.68;;;;;;;;;;5178550;27;20348;-71
2023/10/14 10:41:14;;;;;;;12.27;5.18;;;;;;;;;;5179061;27;20113;-69
2023/10/14 10:44:05;;;;;;;11.02;4.60;;;;;;;;;;5178091;27;20423;-70
2023/10/14 10:46:54;;;;;;;11.52;4.93;;;;;;;;;;5179005;27;20136;-70
2023/10/14 10:49:58;;;;;;;12.50;5.05;;;;;;;;;;5177891;27;20328;-70
2023/10/14 10:52:51;;;;;;;14.02;4.50;;;;;;;;;;5178281;27;20014;-69
2023/10/14 10:55:48;;;;;;;11.40;4.28;;;;;;;;;;5178226;27;20055;-69
2023/10/14 10:58:33;;;;;;;6.32;3.70;;;;;;;;;;5177712;27;20085;-68
2023/10/14 11:01:20;;;;;;;7.72;3.30;;;;;;;;;;5163206;27;20448;-69
2023/10/14 11:04:08;;;;;;;9.32;3.38;;;;;;;;;;5178227;27;20041;-70
2023/10/14 11:06:53;;;;;;;9.65;3.53;;;;;;;;;;5178591;27;20436;-69
2023/10/14 11:09:39;;;;;;;12.38;3.80;;;;;;;;;;5177442;27;20065;-69
2023/10/14 11:12:25;;;;;;;7.32;4.22;;;;;;;;;;5178300;27;20022;-70
2023/10/14 11:15:17;;;;;;;7.80;3.60;;;;;;;;;;5177145;27;20022;-70
2023/10/14 11:18:03;;;;;;;8.13;3.65;;;;;;;;;;5163095;27;20454;-70
2023/10/14 11:20:49;;;;;;;14.07;4.63;;;;;;;;;;5176649;27;20049;-69
2023/10/14 11:23:39;;;;;;;6.40;3.20;;;;;;;;;;5177615;27;20026;-70
2023/10/14 11:26:24;;;;;;;7.80;3.00;;;;;;;;;;5178023;27;20022;-69
2023/10/14 11:29:10;;;;;;;11.45;3.70;;;;;;;;;;5178119;27;20465;-69
2023/10/14 11:31:57;;;;;;;10.50;3.72;;;;;;;;;;5176990;27;20033;-70
2023/10/14 11:34:47;;;;;;;8.27;3.53;;;;;;;;;;5176731;27;20105;-74
2023/10/14 11:37:36;;;;;;;9.45;3.60;;;;;;;;;;5177953;27;20110;-70
2023/10/14 11:40:31;;;;;;;11.98;4.00;;;;;;;;;;5177813;27;20092;-70
2023/10/14 11:43:17;;;;;;;25.52;3.67;;;;;;;;;;5176131;27;20025;-70
2023/10/14 11:46:02;;;;;;;8.73;3.70;;;;;;;;;;5178045;27;20028;-70
2023/10/14 11:48:48;;;;;;;9.63;3.50;;;;;;;;;;5177142;27;20042;-71
2023/10/14 11:51:37;;;;;;;11.18;3.50;;;;;;;;;;5162452;27;20390;-70
2023/10/14 11:54:24;;;;;;;9.77;3.28;;;;;;;;;;5148292;27;20064;-69
2023/10/14 11:57:11;;;;;;;8.32;3.08;;;;;;;;;;5176139;27;20010;-70
2023/10/14 11:59:58;;;;;;;5.43;3.25;;;;;;;;;;5176327;27;20018;-71
2023/10/14 12:02:45;;;;;;;11.20;3.40;;;;;;;;;;5177054;27;20030;-72
2023/10/14 12:05:39;;;;;;;5.93;3.03;;;;;;;;;;5168542;27;20029;-70
2023/10/14 12:08:32;;;;;;;7.68;3.58;;;;;;;;;;5171215;27;20034;-70
2023/10/14 12:11:17;;;;;;;8.23;5.03;;;;;;;;;;5175333;27;20041;-71
2023/10/14 12:14:03;;;;;;;21.55;14.40;;;;;;;;;;5161669;27;20072;-71
2023/10/14 12:16:49;;;;;;;22.88;15.13;;;;;;;;;;5162083;27;20019;-73
2023/10/14 12:19:37;;;;;;;16.08;5.35;;;;;;;;;;5176365;27;20022;-73
2023/10/14 12:22:23;;;;;;;15.52;10.02;;;;;;;;;;5176070;27;20015;-73
2023/10/14 12:25:08;;;;;;;10.10;6.28;;;;;;;;;;5176527;27;20033;-73
2023/10/14 12:27:54;;;;;;;8.18;3.30;;;;;;;;;;5176003;27;20098;-70
2023/10/14 12:30:41;;;;;;;19.50;10.10;;;;;;;;;;5176733;27;20011;-71
2023/10/14 12:33:37;;;;;;;10.18;4.40;;;;;;;;;;5177570;27;20033;-70
2023/10/14 12:36:27;;;;;;;13.07;2.95;;;;;;;;;;5175422;27;20010;-72
2023/10/14 12:39:19;;;;;;;11.05;3.95;;;;;;;;;;5176663;27;20021;-71
2023/10/14 12:42:06;;;;;;;9.32;3.92;;;;;;;;;;5176221;27;20033;-71
2023/10/14 12:44:52;;;;;;;12.05;3.42;;;;;;;;;;5177104;27;20332;-72
2023/10/14 12:47:44;;;;;;;8.50;3.72;;;;;;;;;;5175258;27;20022;-71
2023/10/14 12:50:31;;;;;;;13.27;3.80;;;;;;;;;;5174734;27;20115;-71
2023/10/14 12:53:17;;;;;;;9.18;3.55;;;;;;;;;;5176053;27;20060;-69
2023/10/14 12:56:03;;;;;;;5.25;3.15;;;;;;;;;;5175987;27;20029;-72
2023/10/14 12:58:49;;;;;;;8.80;3.97;;;;;;;;;;5160270;27;20041;-72
2023/10/14 13:01:34;;;;;;;8.93;3.63;;;;;;;;;;5175086;27;20029;-72
2023/10/14 13:04:21;;;;;;;9.43;3.33;;;;;;;;;;5165930;27;20090;-72
2023/10/14 13:07:08;;;;;;;10.30;3.60;;;;;;;;;;5154989;27;20061;-72
2023/10/14 13:09:54;;;;;;;9.48;3.70;;;;;;;;;;5155398;27;20023;-71
2023/10/14 13:12:40;;;;;;;9.02;3.50;;;;;;;;;;5154378;27;20079;-71
2023/10/14 13:15:28;;;;;;;11.73;3.42;;;;;;;;;;5154235;27;20030;-71
2023/10/14 13:18:13;;;;;;;12.60;3.60;;;;;;;;;;5154871;27;20459;-72
2023/10/14 13:20:59;;;;;;;18.15;5.72;;;;;;;;;;5154560;27;20037;-71
2023/10/14 13:23:48;;;;;;;7.70;3.53;;;;;;;;;;5166183;27;20022;-71
2023/10/14 13:26:35;;;;;;;8.88;3.67;;;;;;;;;;5174280;27;20018;-73
2023/10/14 13:29:20;;;;;;;6.05;3.63;;;;;;;;;;5161206;27;20101;-70
2023/10/14 13:32:06;;;;;;;8.85;3.30;;;;;;;;;;5175743;27;20003;-70
2023/10/14 13:34:53;;;;;;;9.77;3.45;;;;;;;;;;5174786;27;20435;-71
2023/10/14 13:37:43;;;;;;;10.07;3.70;;;;;;;;;;5160629;27;20078;-71
2023/10/14 13:40:30;;;;;;;11.05;3.33;;;;;;;;;;5174043;27;20018;-70
2023/10/14 13:43:17;;;;;;;9.00;3.50;;;;;;;;;;5175692;27;20022;-72
2023/10/14 13:46:04;;;;;;;8.25;3.35;;;;;;;;;;5175063;27;20026;-69
2023/10/14 13:48:56;;;;;;;9.40;3.70;;;;;;;;;;5174528;27;20038;-71
2023/10/14 13:51:42;;;;;;;6.25;2.90;;;;;;;;;;5174968;27;20459;-71
2023/10/14 13:54:27;;;;;;;8.50;3.15;;;;;;;;;;5175381;27;20053;-71
2023/10/14 13:57:17;;;;;;;18.73;4.07;;;;;;;;;;5160209;27;20482;-72
2023/10/14 14:00:07;;;;;;;13.45;3.78;;;;;;;;;;5174246;27;20030;-71
2023/10/14 14:02:53;;;;;;;7.68;3.40;;;;;;;;;;5174385;27;20026;-71
2023/10/14 14:05:39;;;;;;;8.68;4.00;;;;;;;;;;5153240;27;20023;-72
2023/10/14 14:08:28;;;;;;;9.45;3.53;;;;;;;;;;5153589;27;20030;-71
2023/10/14 14:11:13;;;;;;;9.23;3.90;;;;;;;;;;5152605;27;20033;-71
2023/10/14 14:13:59;;;;;;;11.45;3.70;;;;;;;;;;5153608;27;20035;-73
2023/10/14 14:16:45;;;;;;;9.95;4.30;;;;;;;;;;5154364;27;20030;-71
2023/10/14 14:19:31;;;;;;;8.50;3.58;;;;;;;;;;5153298;27;20018;-71
2023/10/14 14:22:18;;;;;;;9.48;3.63;;;;;;;;;;5153820;27;20019;-71
2023/10/14 14:25:05;;;;;;;13.35;4.18;;;;;;;;;;5153167;27;20078;-71
2023/10/14 14:27:52;;;;;;;10.20;3.63;;;;;;;;;;5152639;27;20038;-72
2023/10/14 14:30:39;;;;;;;8.50;3.95;;;;;;;;;;5153169;27;20050;-72
2023/10/14 14:33:27;;;;;;;12.45;3.92;;;;;;;;;;5153456;27;20409;-73
2023/10/14 14:36:13;;;;;;;8.82;3.40;;;;;;;;;;5154944;27;20031;-72
2023/10/14 14:38:59;;;;;;;9.70;3.88;;;;;;;;;;5153692;27;20026;-72
2023/10/14 14:41:44;;;;;;;7.03;3.65;;;;;;;;;;5139712;27;20367;-72
2023/10/14 14:44:32;;;;;;;9.13;3.78;;;;;;;;;;5157168;27;20427;-71
2023/10/14 14:47:18;;;;;;;9.73;3.65;;;;;;;;;;5169300;27;20082;-71
2023/10/14 14:50:03;;;;;;;7.25;3.50;;;;;;;;;;5158661;27;20053;-72
2023/10/14 14:52:49;;;;;;;10.75;4.00;;;;;;;;;;5159845;27;20068;-71
2023/10/14 14:55:41;;;;;;;11.40;3.90;;;;;;;;;;5173974;27;20022;-71
2023/10/14 14:58:28;;;;;;;9.27;4.07;;;;;;;;;;5160228;27;20022;-72
2023/10/14 15:01:19;;;;;;;10.63;4.03;;;;;;;;;;5174225;27;20041;-71
2023/10/14 15:04:06;;;;;;;11.98;3.83;;;;;;;;;;5172978;27;20023;-71
2023/10/14 15:06:53;;;;;;;12.77;4.18;;;;;;;;;;5159944;27;20034;-71
2023/10/14 15:09:39;;;;;;;15.98;4.47;;;;;;;;;;5172989;27;20011;-71
2023/10/14 15:12:25;;;;;;;15.05;3.92;;;;;;;;;;5173306;27;20347;-70
2023/10/14 15:15:11;;;;;;;21.70;5.10;;;;;;;;;;5158330;27;20127;-70
2023/10/14 15:17:56;;;;;;;16.15;4.68;;;;;;;;;;5161646;27;20086;-70
2023/10/14 15:20:44;;;;;;;13.90;5.03;;;;;;;;;;5178752;27;20015;-71
2023/10/14 15:23:30;;;;;;;12.18;4.45;;;;;;;;;;5178312;27;20124;-71
2023/10/14 15:26:15;;;;;;;13.45;4.90;;;;;;;;;;5178035;27;20018;-71
2023/10/14 15:29:04;;;;;;;16.50;5.65;;;;;;;;;;5177858;27;20019;-71
2023/10/14 15:31:49;;;;;;;15.65;4.95;;;;;;;;;;5177137;27;20018;-69
2023/10/14 15:34:35;;;;;;;14.30;4.93;;;;;;;;;;5178385;27;20026;-69
2023/10/14 15:37:20;;;;;;;11.45;4.60;;;;;;;;;;5176882;27;20026;-70
2023/10/14 15:40:08;;;;;;;9.43;4.60;;;;;;;;;;5162109;27;20102;-70
2023/10/14 15:42:54;;;;;;;16.23;5.13;;;;;;;;;;5156463;27;20062;-69
2023/10/14 15:45:39;;;;;;;19.90;5.07;;;;;;;;;;5177427;27;20471;-69
2023/10/14 15:48:25;;;;;;;11.32;5.20;;;;;;;;;;5177442;27;20037;-69
2023/10/14 15:51:20;;;;;;;16.25;5.68;;;;;;;;;;5177094;27;20030;-69
2023/10/14 15:54:06;;;;;;;16.83;5.13;;;;;;;;;;5177387;27;20508;-70
2023/10/14 15:56:52;;;;;;;14.30;5.30;;;;;;;;;;5177485;27;20077;-70
2023/10/14 15:59:37;;;;;;;18.80;5.18;;;;;;;;;;5176014;27;20033;-69
2023/10/14 16:02:23;;;;;;;16.55;5.78;;;;;;;;;;5177073;27;20025;-71
2023/10/14 16:05:10;;;;;;;15.85;5.50;;;;;;;;;;5177172;27;20102;-69
2023/10/14 16:07:56;;;;;;;14.27;6.68;;;;;;;;;;5176118;27;20018;-70
2023/10/14 16:10:45;;;;;;;14.40;6.75;;;;;;;;;;5177520;27;20033;-70
2023/10/14 16:13:31;;;;;;;16.58;5.80;;;;;;;;;;5176449;27;20087;-69
2023/10/14 16:16:17;;;;;;;14.40;6.10;;;;;;;;;;5175825;27;20101;-69
2023/10/14 16:19:04;;;;;;;15.10;6.30;;;;;;;;;;5177045;27;20440;-69
2023/10/14 16:21:50;;;;;;;13.50;5.80;;;;;;;;;;5176818;27;20416;-69
2023/10/14 16:24:35;;;;;;;17.30;6.68;;;;;;;;;;5176094;27;20497;-69
2023/10/14 16:27:22;;;;;;;13.50;6.13;;;;;;;;;;5176078;27;20466;-69
2023/10/14 16:30:14;;;;;;;16.40;6.32;;;;;;;;;;5176460;27;20455;-69
2023/10/14 16:33:02;;;;;;;13.43;6.13;;;;;;;;;;5176881;27;20014;-69
2023/10/14 16:35:50;;;;;;;11.95;5.55;;;;;;;;;;5171805;27;20103;-69
2023/10/14 16:38:36;;;;;;;13.43;6.13;;;;;;;;;;5174650;27;20030;-75
2023/10/14 16:41:21;;;;;;;17.75;6.45;;;;;;;;;;5174878;27;20076;-70
2023/10/14 16:44:07;;;;;;;16.70;6.55;;;;;;;;;;5176165;27;20039;-70
2023/10/14 16:46:53;;;;;;;18.65;6.68;;;;;;;;;;5160297;27;20050;-69
2023/10/14 16:49:41;;;;;;;14.45;6.10;;;;;;;;;;5154169;27;20047;-69
2023/10/14 16:52:27;;;;;;;15.32;6.05;;;;;;;;;;5155205;27;20021;-70
2023/10/14 16:55:13;;;;;;;16.20;7.00;;;;;;;;;;5170369;27;20029;-69
2023/10/14 16:57:59;;;;;;;17.50;6.97;;;;;;;;;;5175822;27;20010;-69
2023/10/14 17:00:46;;;;;;;14.35;6.60;;;;;;;;;;5175515;27;20026;-69